sensor_id;sensor_type;location;lat;lon;timestamp;pressure;altitude;pressure_sealevel;temperature;humidity
12868;BME280;33517;49.866;8.320;2023-01-29T00:01:07;101826.09;;;2.45;70.80
12868;BME280;33517;49.866;8.320;2023-01-29T00:03:59;101821.97;;;2.41;70.88
12868;BME280;33517;49.866;8.320;2023-01-29T00:06:51;101828.06;;;2.40;71.43
12868;BME280;33517;49.866;8.320;2023-01-29T00:09:43;101827.75;;;2.46;71.35
12868;BME280;33517;49.866;8.320;2023-01-29T00:12:35;101829.38;;;2.48;71.32
12868;BME280;33517;49.866;8.320;2023-01-29T00:15:27;101832.94;;;2.46;71.72
12868;BME280;33517;49.866;8.320;2023-01-29T00:18:20;101830.34;;;2.46;71.34
12868;BME280;33517;49.866;8.320;2023-01-29T00:21:14;101838.31;;;2.43;71.47
12868;BME280;33517;49.866;8.320;2023-01-29T00:24:06;101838.22;;;2.44;70.58
12868;BME280;33517;49.866;8.320;2023-01-29T00:26:58;101832.06;;;2.47;70.66
12868;BME280;33517;49.866;8.320;2023-01-29T00:29:50;101833.72;;;2.48;70.44
12868;BME280;33517;49.866;8.320;2023-01-29T00:33:01;101830.94;;;2.51;70.70
12868;BME280;33517;49.866;8.320;2023-01-29T00:35:54;101843.16;;;2.49;70.95
12868;BME280;33517;49.866;8.320;2023-01-29T00:38:46;101851.81;;;2.49;70.50
12868;BME280;33517;49.866;8.320;2023-01-29T00:41:44;101846.63;;;2.49;70.94
12868;BME280;33517;49.866;8.320;2023-01-29T00:44:53;101850.47;;;2.42;70.17
12868;BME280;33517;49.866;8.320;2023-01-29T00:47:48;101853.97;;;2.41;70.53
12868;BME280;33517;49.866;8.320;2023-01-29T00:50:40;101856.50;;;2.43;70.72
12868;BME280;33517;49.866;8.320;2023-01-29T00:53:33;101852.28;;;2.40;70.56
12868;BME280;33517;49.866;8.320;2023-01-29T00:56:25;101849.69;;;2.40;70.81
12868;BME280;33517;49.866;8.320;2023-01-29T00:59:17;101844.28;;;2.45;70.14
12868;BME280;33517;49.866;8.320;2023-01-29T01:02:09;101845.34;;;2.41;69.50
12868;BME280;33517;49.866;8.320;2023-01-29T01:05:18;101839.47;;;2.37;70.69
12868;BME280;33517;49.866;8.320;2023-01-29T01:08:10;101832.94;;;2.46;70.30
12868;BME280;33517;49.866;8.320;2023-01-29T01:11:18;101835.25;;;2.52;70.50
12868;BME280;33517;49.866;8.320;2023-01-29T01:14:09;101835.25;;;2.52;70.57
12868;BME280;33517;49.866;8.320;2023-01-29T01:17:01;101834.78;;;2.44;70.02
12868;BME280;33517;49.866;8.320;2023-01-29T01:19:53;101837.47;;;2.42;70.69
12868;BME280;33517;49.866;8.320;2023-01-29T01:22:46;101821.72;;;2.45;70.41
12868;BME280;33517;49.866;8.320;2023-01-29T01:25:39;101826.16;;;2.43;70.35
12868;BME280;33517;49.866;8.320;2023-01-29T01:28:32;101825.16;;;2.46;70.82
12868;BME280;33517;49.866;8.320;2023-01-29T01:31:24;101825.84;;;2.49;70.08
12868;BME280;33517;49.866;8.320;2023-01-29T01:34:16;101820.63;;;2.49;70.73
12868;BME280;33517;49.866;8.320;2023-01-29T01:37:08;101818.88;;;2.50;70.52
12868;BME280;33517;49.866;8.320;2023-01-29T01:40:00;101819.06;;;2.47;69.98
12868;BME280;33517;49.866;8.320;2023-01-29T01:42:54;101817.59;;;2.41;70.16
12868;BME280;33517;49.866;8.320;2023-01-29T01:45:47;101811.22;;;2.31;69.95
12868;BME280;33517;49.866;8.320;2023-01-29T01:48:39;101803.66;;;2.27;70.43
12868;BME280;33517;49.866;8.320;2023-01-29T01:51:35;101802.88;;;2.25;70.30
12868;BME280;33517;49.866;8.320;2023-01-29T01:54:31;101797.53;;;2.28;70.73
12868;BME280;33517;49.866;8.320;2023-01-29T01:57:24;101783.63;;;2.29;70.60
12868;BME280;33517;49.866;8.320;2023-01-29T02:00:19;101790.19;;;2.36;70.98
12868;BME280;33517;49.866;8.320;2023-01-29T02:03:13;101786.16;;;2.30;71.09
12868;BME280;33517;49.866;8.320;2023-01-29T02:06:23;101781.22;;;2.26;71.13
12868;BME280;33517;49.866;8.320;2023-01-29T02:09:36;101774.41;;;2.23;71.36
12868;BME280;33517;49.866;8.320;2023-01-29T02:12:31;101772.97;;;2.18;71.32
12868;BME280;33517;49.866;8.320;2023-01-29T02:15:23;101774.94;;;2.13;71.25
12868;BME280;33517;49.866;8.320;2023-01-29T02:18:18;101771.06;;;2.04;71.57
12868;BME280;33517;49.866;8.320;2023-01-29T02:21:33;101772.91;;;2.02;71.20
12868;BME280;33517;49.866;8.320;2023-01-29T02:28:18;101775.19;;;1.91;71.27
12868;BME280;33517;49.866;8.320;2023-01-29T02:31:18;101766.72;;;1.88;71.27
12868;BME280;33517;49.866;8.320;2023-01-29T02:34:17;101769.38;;;1.86;71.17
12868;BME280;33517;49.866;8.320;2023-01-29T02:37:14;101761.69;;;1.84;71.44
12868;BME280;33517;49.866;8.320;2023-01-29T02:40:12;101761.75;;;1.83;71.48
12868;BME280;33517;49.866;8.320;2023-01-29T02:43:19;101775.50;;;1.85;71.92
12868;BME280;33517;49.866;8.320;2023-01-29T02:46:17;101776.28;;;1.87;72.21
12868;BME280;33517;49.866;8.320;2023-01-29T02:49:18;101789.53;;;1.81;72.73
12868;BME280;33517;49.866;8.320;2023-01-29T02:52:16;101787.94;;;1.78;72.72
12868;BME280;33517;49.866;8.320;2023-01-29T02:55:12;101788.78;;;1.79;72.65
12868;BME280;33517;49.866;8.320;2023-01-29T02:58:12;101798.00;;;1.84;72.65
12868;BME280;33517;49.866;8.320;2023-01-29T03:01:12;101809.00;;;1.89;72.71
12868;BME280;33517;49.866;8.320;2023-01-29T03:04:09;101808.78;;;1.94;72.49
12868;BME280;33517;49.866;8.320;2023-01-29T03:07:04;101818.38;;;1.92;71.98
12868;BME280;33517;49.866;8.320;2023-01-29T03:10:01;101808.19;;;1.89;72.22
12868;BME280;33517;49.866;8.320;2023-01-29T03:13:05;101802.91;;;1.91;71.77
12868;BME280;33517;49.866;8.320;2023-01-29T03:16:02;101815.59;;;1.97;71.70
12868;BME280;33517;49.866;8.320;2023-01-29T03:19:01;101809.91;;;2.06;72.00
12868;BME280;33517;49.866;8.320;2023-01-29T03:21:55;101799.38;;;2.09;72.29
12868;BME280;33517;49.866;8.320;2023-01-29T03:24:51;101793.97;;;1.79;68.28
12868;BME280;33517;49.866;8.320;2023-01-29T03:28:04;101787.59;;;1.50;68.02
12868;BME280;33517;49.866;8.320;2023-01-29T03:31:16;101796.75;;;1.57;69.48
12868;BME280;33517;49.866;8.320;2023-01-29T03:34:28;101805.94;;;1.64;69.08
12868;BME280;33517;49.866;8.320;2023-01-29T03:37:32;101811.38;;;1.77;69.97
12868;BME280;33517;49.866;8.320;2023-01-29T03:40:27;101821.00;;;1.92;69.70
12868;BME280;33517;49.866;8.320;2023-01-29T03:43:29;101816.09;;;2.03;70.37
12868;BME280;33517;49.866;8.320;2023-01-29T03:46:27;101823.59;;;2.09;70.20
12868;BME280;33517;49.866;8.320;2023-01-29T03:49:31;101818.25;;;2.12;70.22
12868;BME280;33517;49.866;8.320;2023-01-29T03:52:35;101817.41;;;2.12;70.90
12868;BME280;33517;49.866;8.320;2023-01-29T03:55:34;101810.38;;;2.14;71.20
12868;BME280;33517;49.866;8.320;2023-01-29T03:58:35;101800.13;;;2.11;70.43
12868;BME280;33517;49.866;8.320;2023-01-29T04:01:32;101802.22;;;2.04;70.93
12868;BME280;33517;49.866;8.320;2023-01-29T04:04:33;101795.97;;;1.91;71.01
12868;BME280;33517;49.866;8.320;2023-01-29T04:07:28;101798.16;;;1.81;71.29
12868;BME280;33517;49.866;8.320;2023-01-29T04:10:26;101801.84;;;1.77;71.73
12868;BME280;33517;49.866;8.320;2023-01-29T04:13:18;101808.16;;;1.72;72.04
12868;BME280;33517;49.866;8.320;2023-01-29T04:16:15;101808.16;;;1.72;72.28
12868;BME280;33517;49.866;8.320;2023-01-29T04:19:08;101809.75;;;1.74;72.74
12868;BME280;33517;49.866;8.320;2023-01-29T04:22:05;101803.03;;;1.70;72.64
12868;BME280;33517;49.866;8.320;2023-01-29T04:24:58;101789.44;;;1.65;73.14
12868;BME280;33517;49.866;8.320;2023-01-29T04:27:58;101777.78;;;1.57;73.00
12868;BME280;33517;49.866;8.320;2023-01-29T04:30:55;101761.88;;;1.46;72.71
12868;BME280;33517;49.866;8.320;2023-01-29T04:33:55;101764.34;;;1.30;72.27
12868;BME280;33517;49.866;8.320;2023-01-29T04:36:58;101775.63;;;1.12;73.30
12868;BME280;33517;49.866;8.320;2023-01-29T04:39:57;101777.91;;;1.00;73.12
12868;BME280;33517;49.866;8.320;2023-01-29T04:42:58;101765.88;;;0.99;73.87
12868;BME280;33517;49.866;8.320;2023-01-29T04:46:08;101771.16;;;0.97;74.06
12868;BME280;33517;49.866;8.320;2023-01-29T04:49:12;101776.59;;;0.91;74.08
12868;BME280;33517;49.866;8.320;2023-01-29T04:52:08;101778.44;;;0.89;74.58
12868;BME280;33517;49.866;8.320;2023-01-29T04:55:07;101786.00;;;0.93;75.10
12868;BME280;33517;49.866;8.320;2023-01-29T04:58:04;101793.53;;;0.98;74.87
12868;BME280;33517;49.866;8.320;2023-01-29T05:01:01;101792.06;;;1.11;75.75
12868;BME280;33517;49.866;8.320;2023-01-29T05:03:56;101784.66;;;1.22;75.79
12868;BME280;33517;49.866;8.320;2023-01-29T05:06:52;101791.13;;;1.31;74.76
12868;BME280;33517;49.866;8.320;2023-01-29T05:09:44;101782.22;;;1.36;74.76
12868;BME280;33517;49.866;8.320;2023-01-29T05:12:39;101794.91;;;1.42;75.13
12868;BME280;33517;49.866;8.320;2023-01-29T05:15:35;101788.50;;;1.49;75.05
12868;BME280;33517;49.866;8.320;2023-01-29T05:18:28;101803.31;;;1.47;74.80
12868;BME280;33517;49.866;8.320;2023-01-29T05:21:20;101803.25;;;1.49;75.00
12868;BME280;33517;49.866;8.320;2023-01-29T05:24:15;101796.34;;;1.48;75.04
12868;BME280;33517;49.866;8.320;2023-01-29T05:27:10;101788.63;;;1.29;74.86
12868;BME280;33517;49.866;8.320;2023-01-29T05:30:26;101780.91;;;1.09;74.87
12868;BME280;33517;49.866;8.320;2023-01-29T05:33:20;101785.41;;;1.06;75.29
12868;BME280;33517;49.866;8.320;2023-01-29T05:36:12;101783.47;;;1.11;75.11
12868;BME280;33517;49.866;8.320;2023-01-29T05:39:04;101774.63;;;1.15;75.18
12868;BME280;33517;49.866;8.320;2023-01-29T05:41:56;101775.34;;;1.18;75.32
12868;BME280;33517;49.866;8.320;2023-01-29T05:44:48;101771.00;;;1.19;75.16
12868;BME280;33517;49.866;8.320;2023-01-29T05:47:41;101769.28;;;1.18;75.95
12868;BME280;33517;49.866;8.320;2023-01-29T05:50:33;101769.47;;;1.15;75.91
12868;BME280;33517;49.866;8.320;2023-01-29T05:53:25;101768.19;;;1.05;75.70
12868;BME280;33517;49.866;8.320;2023-01-29T05:56:17;101778.66;;;1.03;76.63
12868;BME280;33517;49.866;8.320;2023-01-29T05:59:08;101776.88;;;1.04;76.41
12868;BME280;33517;49.866;8.320;2023-01-29T06:02:00;101781.34;;;1.00;76.65
12868;BME280;33517;49.866;8.320;2023-01-29T06:04:53;101785.84;;;0.97;76.42
12868;BME280;33517;49.866;8.320;2023-01-29T06:07:45;101789.78;;;1.05;77.13
12868;BME280;33517;49.866;8.320;2023-01-29T06:10:37;101788.00;;;1.06;76.04
12868;BME280;33517;49.866;8.320;2023-01-29T06:13:29;101792.38;;;1.05;75.80
12868;BME280;33517;49.866;8.320;2023-01-29T06:16:21;101776.66;;;1.08;76.36
12868;BME280;33517;49.866;8.320;2023-01-29T06:19:13;101781.84;;;1.08;76.38
12868;BME280;33517;49.866;8.320;2023-01-29T06:22:06;101777.72;;;1.04;75.98
12868;BME280;33517;49.866;8.320;2023-01-29T06:24:58;101782.00;;;1.05;75.92
12868;BME280;33517;49.866;8.320;2023-01-29T06:27:50;101781.22;;;1.03;76.11
12868;BME280;33517;49.866;8.320;2023-01-29T06:30:42;101784.63;;;1.04;76.26
12868;BME280;33517;49.866;8.320;2023-01-29T06:33:34;101788.78;;;1.08;76.92
12868;BME280;33517;49.866;8.320;2023-01-29T06:36:25;101784.16;;;1.14;77.00
12868;BME280;33517;49.866;8.320;2023-01-29T06:39:19;101771.41;;;1.28;76.63
12868;BME280;33517;49.866;8.320;2023-01-29T06:42:10;101773.63;;;1.36;76.23
12868;BME280;33517;49.866;8.320;2023-01-29T06:45:03;101770.25;;;1.34;76.52
12868;BME280;33517;49.866;8.320;2023-01-29T06:47:55;101768.50;;;1.34;75.97
12868;BME280;33517;49.866;8.320;2023-01-29T06:50:47;101766.13;;;1.30;75.96
12868;BME280;33517;49.866;8.320;2023-01-29T06:53:40;101767.03;;;1.29;75.78
12868;BME280;33517;49.866;8.320;2023-01-29T06:56:33;101770.63;;;1.26;75.88
12868;BME280;33517;49.866;8.320;2023-01-29T06:59:25;101767.31;;;1.23;75.54
12868;BME280;33517;49.866;8.320;2023-01-29T07:02:17;101771.81;;;1.19;75.23
12868;BME280;33517;49.866;8.320;2023-01-29T07:05:08;101771.97;;;1.16;75.40
12868;BME280;33517;49.866;8.320;2023-01-29T07:08:00;101771.13;;;1.16;75.04
12868;BME280;33517;49.866;8.320;2023-01-29T07:10:52;101764.28;;;1.15;75.18
12868;BME280;33517;49.866;8.320;2023-01-29T07:13:46;101775.19;;;1.21;75.54
12868;BME280;33517;49.866;8.320;2023-01-29T07:16:37;101781.69;;;1.30;75.64
12868;BME280;33517;49.866;8.320;2023-01-29T07:19:29;101796.03;;;1.37;74.80
12868;BME280;33517;49.866;8.320;2023-01-29T07:22:21;101801.78;;;1.43;75.43
12868;BME280;33517;49.866;8.320;2023-01-29T07:25:13;101804.81;;;1.51;75.17
12868;BME280;33517;49.866;8.320;2023-01-29T07:28:05;101811.72;;;1.52;75.44
12868;BME280;33517;49.866;8.320;2023-01-29T07:30:59;101811.63;;;1.54;74.77
12868;BME280;33517;49.866;8.320;2023-01-29T07:33:51;101809.13;;;1.52;74.23
12868;BME280;33517;49.866;8.320;2023-01-29T07:36:43;101812.56;;;1.53;75.23
12868;BME280;33517;49.866;8.320;2023-01-29T07:39:34;101815.06;;;1.54;74.47
12868;BME280;33517;49.866;8.320;2023-01-29T07:42:26;101814.31;;;1.52;74.68
12868;BME280;33517;49.866;8.320;2023-01-29T07:45:18;101817.75;;;1.53;73.88
12868;BME280;33517;49.866;8.320;2023-01-29T07:48:12;101814.09;;;1.57;73.70
12868;BME280;33517;49.866;8.320;2023-01-29T07:51:04;101816.59;;;1.58;74.40
12868;BME280;33517;49.866;8.320;2023-01-29T07:53:56;101817.09;;;1.66;74.64
12868;BME280;33517;49.866;8.320;2023-01-29T07:56:48;101818.16;;;1.79;74.47
12868;BME280;33517;49.866;8.320;2023-01-29T07:59:39;101813.28;;;1.91;73.53
12868;BME280;33517;49.866;8.320;2023-01-29T08:02:31;101803.19;;;2.02;73.78
12868;BME280;33517;49.866;8.320;2023-01-29T08:05:24;101793.38;;;2.08;73.32
12868;BME280;33517;49.866;8.320;2023-01-29T08:08:16;101791.91;;;2.20;72.52
12868;BME280;33517;49.866;8.320;2023-01-29T08:11:08;101782.97;;;2.08;72.06
12868;BME280;33517;49.866;8.320;2023-01-29T08:14:00;101785.09;;;2.17;70.71
12868;BME280;33517;49.866;8.320;2023-01-29T08:16:52;101790.13;;;2.37;71.19
12868;BME280;33517;49.866;8.320;2023-01-29T08:19:44;101804.44;;;2.61;70.69
12868;BME280;33517;49.866;8.320;2023-01-29T08:22:37;101805.75;;;3.78;68.37
12868;BME280;33517;49.866;8.320;2023-01-29T08:25:29;101797.53;;;3.40;68.78
12868;BME280;33517;49.866;8.320;2023-01-29T08:28:21;101803.91;;;3.03;69.18
12868;BME280;33517;49.866;8.320;2023-01-29T08:31:14;101819.66;;;2.85;68.18
12868;BME280;33517;49.866;8.320;2023-01-29T08:34:07;101821.06;;;2.90;69.29
12868;BME280;33517;49.866;8.320;2023-01-29T08:36:59;101816.28;;;2.83;67.16
12868;BME280;33517;49.866;8.320;2023-01-29T08:39:52;101797.91;;;2.86;67.66
12868;BME280;33517;49.866;8.320;2023-01-29T08:42:44;101787.44;;;3.34;66.75
12868;BME280;33517;49.866;8.320;2023-01-29T08:45:39;101779.81;;;3.76;65.86
12868;BME280;33517;49.866;8.320;2023-01-29T08:48:31;101776.97;;;4.24;64.55
12868;BME280;33517;49.866;8.320;2023-01-29T08:51:24;101769.13;;;4.81;63.92
12868;BME280;33517;49.866;8.320;2023-01-29T08:54:16;101781.50;;;4.77;63.77
12868;BME280;33517;49.866;8.320;2023-01-29T08:57:09;101788.03;;;4.56;64.45
12868;BME280;33517;49.866;8.320;2023-01-29T09:00:01;101805.63;;;4.38;65.13
12868;BME280;33517;49.866;8.320;2023-01-29T09:02:53;101820.94;;;4.29;65.45
12868;BME280;33517;49.866;8.320;2023-01-29T09:05:45;101815.91;;;4.12;64.96
12868;BME280;33517;49.866;8.320;2023-01-29T09:08:37;101808.97;;;3.97;64.69
12868;BME280;33517;49.866;8.320;2023-01-29T09:11:29;101819.63;;;3.78;66.12
12868;BME280;33517;49.866;8.320;2023-01-29T09:14:22;101829.16;;;3.63;65.88
12868;BME280;33517;49.866;8.320;2023-01-29T09:17:14;101825.91;;;3.29;65.94
12868;BME280;33517;49.866;8.320;2023-01-29T09:20:07;101824.53;;;3.22;66.36
12868;BME280;33517;49.866;8.320;2023-01-29T09:23:03;101825.53;;;3.04;65.96
12868;BME280;33517;49.866;8.320;2023-01-29T09:25:55;101831.06;;;2.98;66.32
12868;BME280;33517;49.866;8.320;2023-01-29T09:28:47;101841.91;;;3.06;66.74
12868;BME280;33517;49.866;8.320;2023-01-29T09:31:40;101846.25;;;3.05;66.19
12868;BME280;33517;49.866;8.320;2023-01-29T09:34:32;101862.44;;;2.95;66.04
12868;BME280;33517;49.866;8.320;2023-01-29T09:37:24;101853.63;;;2.97;67.15
12868;BME280;33517;49.866;8.320;2023-01-29T09:40:19;101839.94;;;2.94;66.91
12868;BME280;33517;49.866;8.320;2023-01-29T09:43:16;101846.13;;;2.75;66.46
12868;BME280;33517;49.866;8.320;2023-01-29T09:46:16;101845.78;;;2.81;66.75
12868;BME280;33517;49.866;8.320;2023-01-29T09:49:16;101837.25;;;2.95;66.24
12868;BME280;33517;49.866;8.320;2023-01-29T09:52:16;101851.34;;;2.91;66.28
12868;BME280;33517;49.866;8.320;2023-01-29T09:55:21;101854.50;;;2.80;66.32
12868;BME280;33517;49.866;8.320;2023-01-29T09:58:17;101859.25;;;2.72;65.45
12868;BME280;33517;49.866;8.320;2023-01-29T10:01:14;101859.34;;;2.71;66.84
12868;BME280;33517;49.866;8.320;2023-01-29T10:07:49;101849.50;;;2.93;66.28
12868;BME280;33517;49.866;8.320;2023-01-29T10:10:48;101843.66;;;3.05;66.58
12868;BME280;33517;49.866;8.320;2023-01-29T10:13:47;101839.03;;;3.10;66.19
12868;BME280;33517;49.866;8.320;2023-01-29T10:16:57;101832.59;;;3.17;65.67
12868;BME280;33517;49.866;8.320;2023-01-29T10:20:10;101835.97;;;3.19;66.11
12868;BME280;33517;49.866;8.320;2023-01-29T10:23:16;101834.94;;;3.06;64.03
12868;BME280;33517;49.866;8.320;2023-01-29T10:26:10;101838.72;;;3.16;64.93
12868;BME280;33517;49.866;8.320;2023-01-29T10:29:05;101830.56;;;3.53;65.25
12868;BME280;33517;49.866;8.320;2023-01-29T10:32:00;101823.31;;;3.74;64.45
12868;BME280;33517;49.866;8.320;2023-01-29T10:34:57;101807.28;;;3.66;63.65
12868;BME280;33517;49.866;8.320;2023-01-29T10:37:52;101799.16;;;3.56;64.30
12868;BME280;33517;49.866;8.320;2023-01-29T10:40:49;101793.50;;;3.19;61.97
12868;BME280;33517;49.866;8.320;2023-01-29T10:43:51;101784.25;;;2.82;62.18
12868;BME280;33517;49.866;8.320;2023-01-29T10:46:56;101774.94;;;2.78;62.43
12868;BME280;33517;49.866;8.320;2023-01-29T10:50:08;101779.25;;;2.95;62.74
12868;BME280;33517;49.866;8.320;2023-01-29T10:53:18;101768.66;;;3.13;61.94
12868;BME280;33517;49.866;8.320;2023-01-29T10:56:23;101759.88;;;3.61;62.31
12868;BME280;33517;49.866;8.320;2023-01-29T10:59:32;101757.84;;;4.10;62.12
12868;BME280;33517;49.866;8.320;2023-01-29T11:02:27;101754.06;;;4.15;61.28
12868;BME280;33517;49.866;8.320;2023-01-29T11:05:24;101747.19;;;4.56;61.24
12868;BME280;33517;49.866;8.320;2023-01-29T11:08:20;101737.94;;;4.79;60.12
12868;BME280;33517;49.866;8.320;2023-01-29T11:11:15;101731.22;;;4.89;60.04
12868;BME280;33517;49.866;8.320;2023-01-29T11:14:11;101734.81;;;4.32;59.33
12868;BME280;33517;49.866;8.320;2023-01-29T11:17:13;101715.34;;;4.37;60.27
12868;BME280;33517;49.866;8.320;2023-01-29T11:20:25;101710.06;;;5.20;60.49
12868;BME280;33517;49.866;8.320;2023-01-29T11:23:25;101702.31;;;5.85;58.94
12868;BME280;33517;49.866;8.320;2023-01-29T11:26:20;101697.03;;;6.60;57.67
12868;BME280;33517;49.866;8.320;2023-01-29T11:29:29;101697.22;;;6.57;56.45
12868;BME280;33517;49.866;8.320;2023-01-29T11:32:27;101698.81;;;5.72;54.86
12868;BME280;33517;49.866;8.320;2023-01-29T11:35:22;101698.91;;;5.18;54.78
12868;BME280;33517;49.866;8.320;2023-01-29T11:38:20;101707.84;;;4.88;55.59
12868;BME280;33517;49.866;8.320;2023-01-29T11:41:15;101706.47;;;4.68;56.79
12868;BME280;33517;49.866;8.320;2023-01-29T11:44:19;101702.97;;;4.55;56.95
12868;BME280;33517;49.866;8.320;2023-01-29T11:47:17;101702.78;;;5.25;57.24
12868;BME280;33517;49.866;8.320;2023-01-29T11:50:19;101692.97;;;4.76;55.62
12868;BME280;33517;49.866;8.320;2023-01-29T11:53:32;101687.22;;;4.97;56.70
12868;BME280;33517;49.866;8.320;2023-01-29T11:56:28;101685.78;;;4.79;56.83
12868;BME280;33517;49.866;8.320;2023-01-29T11:59:36;101688.88;;;4.72;56.74
12868;BME280;33517;49.866;8.320;2023-01-29T12:02:33;101688.28;;;4.81;56.89
12868;BME280;33517;49.866;8.320;2023-01-29T12:05:27;101680.19;;;4.30;56.03
12868;BME280;33517;49.866;8.320;2023-01-29T12:08:19;101675.63;;;4.20;57.61
12868;BME280;33517;49.866;8.320;2023-01-29T12:11:14;101674.47;;;4.66;57.93
12868;BME280;33517;49.866;8.320;2023-01-29T12:14:27;101657.72;;;4.83;57.70
12868;BME280;33517;49.866;8.320;2023-01-29T12:17:22;101646.44;;;4.55;57.46
12868;BME280;33517;49.866;8.320;2023-01-29T12:20:19;101640.09;;;5.39;57.50
12868;BME280;33517;49.866;8.320;2023-01-29T12:23:23;101628.13;;;5.87;56.95
12868;BME280;33517;49.866;8.320;2023-01-29T12:26:23;101620.59;;;6.08;55.90
12868;BME280;33517;49.866;8.320;2023-01-29T12:29:23;101624.53;;;5.63;54.40
12868;BME280;33517;49.866;8.320;2023-01-29T12:32:26;101630.16;;;5.44;54.73
12868;BME280;33517;49.866;8.320;2023-01-29T12:35:24;101617.22;;;5.43;55.80
12868;BME280;33517;49.866;8.320;2023-01-29T12:38:19;101618.72;;;4.81;54.96
12868;BME280;33517;49.866;8.320;2023-01-29T12:41:23;101614.19;;;4.44;55.61
12868;BME280;33517;49.866;8.320;2023-01-29T12:44:18;101608.41;;;4.39;56.84
12868;BME280;33517;49.866;8.320;2023-01-29T12:47:15;101601.56;;;5.68;56.63
12868;BME280;33517;49.866;8.320;2023-01-29T12:50:16;101596.94;;;6.58;53.75
12868;BME280;33517;49.866;8.320;2023-01-29T12:53:22;101582.06;;;8.29;53.69
12868;BME280;33517;49.866;8.320;2023-01-29T12:56:19;101587.16;;;9.87;50.98
12868;BME280;33517;49.866;8.320;2023-01-29T12:59:17;101586.41;;;10.65;45.76
12868;BME280;33517;49.866;8.320;2023-01-29T13:02:29;101573.44;;;9.93;45.77
12868;BME280;33517;49.866;8.320;2023-01-29T13:05:25;101568.50;;;10.30;47.38
12868;BME280;33517;49.866;8.320;2023-01-29T13:08:22;101563.13;;;10.60;46.43
12868;BME280;33517;49.866;8.320;2023-01-29T13:11:20;101566.78;;;9.29;43.70
12868;BME280;33517;49.866;8.320;2023-01-29T13:14:19;101573.69;;;8.24;46.12
12868;BME280;33517;49.866;8.320;2023-01-29T13:17:17;101570.84;;;8.05;48.90
12868;BME280;33517;49.866;8.320;2023-01-29T13:20:15;101573.91;;;7.32;48.12
12868;BME280;33517;49.866;8.320;2023-01-29T13:23:17;101568.00;;;6.48;50.61
12868;BME280;33517;49.866;8.320;2023-01-29T13:26:10;101573.56;;;6.44;51.00
12868;BME280;33517;49.866;8.320;2023-01-29T13:29:02;101562.97;;;6.22;50.79
12868;BME280;33517;49.866;8.320;2023-01-29T13:31:56;101558.97;;;5.42;52.57
12868;BME280;33517;49.866;8.320;2023-01-29T13:34:49;101551.00;;;5.44;53.46
12868;BME280;33517;49.866;8.320;2023-01-29T13:37:47;101542.25;;;6.19;52.12
12868;BME280;33517;49.866;8.320;2023-01-29T13:40:47;101530.19;;;7.11;51.82
12868;BME280;33517;49.866;8.320;2023-01-29T13:43:41;101526.91;;;7.31;51.34
12868;BME280;33517;49.866;8.320;2023-01-29T13:46:40;101523.94;;;7.69;50.16
12868;BME280;33517;49.866;8.320;2023-01-29T13:49:35;101531.78;;;8.02;48.01
12868;BME280;33517;49.866;8.320;2023-01-29T13:52:34;101537.47;;;7.18;49.12
12868;BME280;33517;49.866;8.320;2023-01-29T13:55:30;101530.59;;;7.28;49.42
12868;BME280;33517;49.866;8.320;2023-01-29T13:58:52;101526.41;;;7.26;50.41
12868;BME280;33517;49.866;8.320;2023-01-29T14:02:01;101520.44;;;7.13;50.21
12868;BME280;33517;49.866;8.320;2023-01-29T14:08:45;101519.03;;;4.90;54.27
12868;BME280;33517;49.866;8.320;2023-01-29T14:11:46;101513.28;;;4.46;55.67
12868;BME280;33517;49.866;8.320;2023-01-29T14:15:03;101510.03;;;4.16;57.14
12868;BME280;33517;49.866;8.320;2023-01-29T14:18:15;101505.22;;;4.10;57.38
12868;BME280;33517;49.866;8.320;2023-01-29T14:21:19;101503.72;;;3.65;59.05
12868;BME280;33517;49.866;8.320;2023-01-29T14:24:16;101505.13;;;3.56;60.56
12868;BME280;33517;49.866;8.320;2023-01-29T14:27:19;101499.75;;;3.59;59.87
12868;BME280;33517;49.866;8.320;2023-01-29T14:30:16;101491.56;;;3.23;62.05
12868;BME280;33517;49.866;8.320;2023-01-29T14:33:23;101505.84;;;3.02;63.11
12868;BME280;33517;49.866;8.320;2023-01-29T14:36:16;101506.25;;;2.80;64.14
12868;BME280;33517;49.866;8.320;2023-01-29T14:39:21;101509.94;;;2.76;64.71
12868;BME280;33517;49.866;8.320;2023-01-29T14:42:20;101505.41;;;2.80;65.25
12868;BME280;33517;49.866;8.320;2023-01-29T14:45:24;101507.34;;;2.76;65.18
12868;BME280;33517;49.866;8.320;2023-01-29T14:48:35;101499.94;;;2.55;66.37
12868;BME280;33517;49.866;8.320;2023-01-29T14:51:33;101498.84;;;2.59;67.29
12868;BME280;33517;49.866;8.320;2023-01-29T14:54:27;101498.22;;;2.40;67.60
12868;BME280;33517;49.866;8.320;2023-01-29T14:57:23;101500.66;;;2.43;67.91
12868;BME280;33517;49.866;8.320;2023-01-29T15:00:20;101492.59;;;2.47;67.74
12868;BME280;33517;49.866;8.320;2023-01-29T15:03:19;101487.50;;;2.30;67.93
12868;BME280;33517;49.866;8.320;2023-01-29T15:06:16;101484.34;;;2.25;69.41
12868;BME280;33517;49.866;8.320;2023-01-29T15:09:12;101480.06;;;2.24;69.50
12868;BME280;33517;49.866;8.320;2023-01-29T15:12:15;101487.03;;;2.24;70.25
12868;BME280;33517;49.866;8.320;2023-01-29T15:15:14;101480.72;;;2.28;69.28
12868;BME280;33517;49.866;8.320;2023-01-29T15:18:12;101474.97;;;2.23;70.19
12868;BME280;33517;49.866;8.320;2023-01-29T15:21:11;101469.84;;;2.21;70.57
12868;BME280;33517;49.866;8.320;2023-01-29T15:24:05;101478.66;;;2.19;70.85
12868;BME280;33517;49.866;8.320;2023-01-29T15:26:57;101470.09;;;2.17;70.75
12868;BME280;33517;49.866;8.320;2023-01-29T15:29:55;101466.09;;;2.11;71.59
12868;BME280;33517;49.866;8.320;2023-01-29T15:32:48;101463.78;;;2.07;71.16
12868;BME280;33517;49.866;8.320;2023-01-29T15:35:40;101469.22;;;2.02;72.10
12868;BME280;33517;49.866;8.320;2023-01-29T15:38:34;101464.94;;;2.01;72.38
12868;BME280;33517;49.866;8.320;2023-01-29T15:41:26;101462.75;;;1.94;72.65
12868;BME280;33517;49.866;8.320;2023-01-29T15:44:20;101452.56;;;1.91;73.44
12868;BME280;33517;49.866;8.320;2023-01-29T15:47:12;101447.53;;;1.88;73.14